createdAt,value
2024-01-11T00:01:00.683Z,31.67
2024-01-11T00:03:31.016Z,34.87
2024-01-11T00:06:03.688Z,32.80
2024-01-11T00:08:38.881Z,35.20
2024-01-11T00:11:09.541Z,34.43
2024-01-11T00:13:42.597Z,32.20
2024-01-11T00:16:12.874Z,35.57
2024-01-11T00:18:43.151Z,33.07
2024-01-11T00:21:13.512Z,31.60
2024-01-11T00:23:51.199Z,30.73
2024-01-11T00:26:21.601Z,31.20
2024-01-11T00:28:51.955Z,29.73
2024-01-11T00:31:28.643Z,33.03
2024-01-11T00:33:59.098Z,31.50
2024-01-11T00:36:29.596Z,35.20
2024-01-11T00:39:04.888Z,31.63
2024-01-11T00:41:38.385Z,33.77
2024-01-11T00:44:08.892Z,34.10
2024-01-11T00:46:39.670Z,33.77
2024-01-11T00:49:10.658Z,34.63
2024-01-11T00:51:48.547Z,33.73
2024-01-11T00:54:21.567Z,35.77
2024-01-11T00:56:52.337Z,34.90
2024-01-11T00:59:28.301Z,32.83
2024-01-11T01:01:58.579Z,34.30
2024-01-11T01:04:28.982Z,34.93
2024-01-11T01:06:59.296Z,34.53
2024-01-11T01:09:32.203Z,32.17
2024-01-11T01:12:04.473Z,36.20
2024-01-11T01:14:34.982Z,33.70
2024-01-11T01:17:05.326Z,32.80
2024-01-11T01:19:36.087Z,32.57
2024-01-11T01:22:06.737Z,34.83
2024-01-11T01:24:39.996Z,32.67
2024-01-11T01:27:10.282Z,32.57
2024-01-11T01:29:43.456Z,33.37
2024-01-11T01:32:13.743Z,33.80
2024-01-11T01:34:46.503Z,33.70
2024-01-11T01:37:23.827Z,31.53
2024-01-11T01:39:58.888Z,35.47
2024-01-11T01:42:29.215Z,32.97
2024-01-11T01:45:06.806Z,31.97
2024-01-11T01:47:37.346Z,33.43
2024-01-11T01:50:09.940Z,32.03
2024-01-11T01:52:44.090Z,34.17
2024-01-11T01:55:22.006Z,33.17
2024-01-11T01:57:56.827Z,32.23
2024-01-11T02:00:28.109Z,36.47
2024-01-11T02:03:02.204Z,32.10
2024-01-11T02:05:35.063Z,35.57
2024-01-11T02:08:11.329Z,33.03
2024-01-11T02:10:44.412Z,31.70
2024-01-11T02:13:15.992Z,31.87
2024-01-11T02:15:46.354Z,31.60
2024-01-11T02:18:16.895Z,33.30
2024-01-11T02:20:47.438Z,33.13
2024-01-11T02:23:23.489Z,33.67
2024-01-11T02:25:56.404Z,32.37
2024-01-11T02:28:26.734Z,30.50
2024-01-11T02:31:00.166Z,32.97
2024-01-11T02:33:30.698Z,34.57
2024-01-11T02:36:04.876Z,35.97
2024-01-11T02:38:35.944Z,31.60
2024-01-11T02:41:22.964Z,33.80
2024-01-11T02:43:56.134Z,34.57
2024-01-11T02:46:26.434Z,32.33
2024-01-11T02:49:02.428Z,34.23
2024-01-11T02:51:32.804Z,33.23
2024-01-11T02:54:03.048Z,37.70
2024-01-11T02:56:35.995Z,41.77
2024-01-11T02:59:06.502Z,34.67
2024-01-11T03:01:36.886Z,35.73
2024-01-11T03:04:13.335Z,34.10
2024-01-11T03:06:43.619Z,36.33
2024-01-11T03:09:13.919Z,36.90
2024-01-11T03:11:49.845Z,34.07
2024-01-11T03:14:23.114Z,34.23
2024-01-11T03:16:53.499Z,34.17
2024-01-11T03:19:23.752Z,32.07
2024-01-11T03:21:54.344Z,33.07
2024-01-11T03:24:24.599Z,34.63
2024-01-11T03:26:57.502Z,34.73
2024-01-11T03:29:27.887Z,32.07
2024-01-11T03:31:58.258Z,32.33
2024-01-11T03:34:28.780Z,32.90
2024-01-11T03:36:59.216Z,31.73
2024-01-11T03:39:31.968Z,30.90
2024-01-11T03:42:05.293Z,33.00
2024-01-11T03:44:35.583Z,31.23
2024-01-11T03:47:06.043Z,32.10
2024-01-11T03:49:36.316Z,33.07
2024-01-11T03:52:07.610Z,35.67
2024-01-11T03:54:40.506Z,31.67
2024-01-11T03:57:13.402Z,29.13
2024-01-11T03:59:44.588Z,30.27
2024-01-11T04:02:17.128Z,30.90
2024-01-11T04:04:53.234Z,29.80
2024-01-11T04:07:28.400Z,31.00
2024-01-11T04:10:13.906Z,30.67
2024-01-11T04:12:49.451Z,30.70
2024-01-11T04:15:20.520Z,31.37
2024-01-11T04:17:59.718Z,30.47
2024-01-11T04:20:30.153Z,33.50
2024-01-11T04:23:07.744Z,32.23
2024-01-11T04:25:39.121Z,31.43
2024-01-11T04:28:14.233Z,33.23
2024-01-11T04:30:44.507Z,31.30
2024-01-11T04:33:15.120Z,28.10
2024-01-11T04:35:47.937Z,32.10
2024-01-11T04:38:36.375Z,27.63
2024-01-11T04:41:12.979Z,31.80
2024-01-11T04:43:56.748Z,29.40
2024-01-11T04:46:30.450Z,28.90
2024-01-11T04:49:02.891Z,30.33
2024-01-11T04:51:33.278Z,27.83
2024-01-11T04:54:03.513Z,29.43
2024-01-11T04:56:33.917Z,28.37
2024-01-11T04:59:06.939Z,33.13
2024-01-11T05:01:51.271Z,33.07
2024-01-11T05:04:21.537Z,115.03
2024-01-11T05:06:51.940Z,45.90
2024-01-11T05:09:22.191Z,40.00
2024-01-11T05:11:52.533Z,73.13
2024-01-11T05:14:30.514Z,147.27
2024-01-11T05:17:19.515Z,128.17
2024-01-11T05:19:49.806Z,63.33
2024-01-11T05:22:28.925Z,51.00
2024-01-11T05:24:59.194Z,41.03
2024-01-11T05:27:29.444Z,41.80
2024-01-11T05:30:04.919Z,32.73
2024-01-11T05:32:35.388Z,33.63
2024-01-11T05:35:05.840Z,47.57
2024-01-11T05:37:36.379Z,40.67
2024-01-11T05:40:12.568Z,33.70
2024-01-11T05:42:50.591Z,30.47
2024-01-11T05:45:32.108Z,34.83
2024-01-11T05:48:11.377Z,30.57
2024-01-11T05:50:41.903Z,31.63
2024-01-11T05:53:22.322Z,30.50
2024-01-11T05:55:55.200Z,31.00
2024-01-11T05:58:25.911Z,39.87
2024-01-11T06:01:01.715Z,32.53
2024-01-11T06:03:35.392Z,32.33
2024-01-11T06:06:07.598Z,32.13
2024-01-11T06:08:38.105Z,31.73
2024-01-11T06:11:09.273Z,31.27
2024-01-11T06:13:39.676Z,34.57
2024-01-11T06:16:13.627Z,33.10
2024-01-11T06:18:44.250Z,34.57
2024-01-11T06:21:14.820Z,36.50
2024-01-11T06:23:45.146Z,37.67
2024-01-11T06:26:15.541Z,33.20
2024-01-11T06:28:51.997Z,32.10
2024-01-11T06:31:24.909Z,31.30
2024-01-11T06:33:55.324Z,32.03
2024-01-11T06:36:26.030Z,31.10
2024-01-11T06:39:02.596Z,29.40
2024-01-11T06:41:43.360Z,31.27
2024-01-11T06:44:13.907Z,31.13
2024-01-11T06:46:46.789Z,31.43
2024-01-11T06:49:17.231Z,28.57
2024-01-11T06:51:49.736Z,32.80
2024-01-11T06:54:20.269Z,35.43
2024-01-11T06:56:53.080Z,32.93
2024-01-11T06:59:27.175Z,32.80
2024-01-11T07:02:04.093Z,32.83
2024-01-11T07:04:37.606Z,31.23
2024-01-11T07:07:14.164Z,31.80
2024-01-11T07:09:44.465Z,32.80
2024-01-11T07:12:14.895Z,32.10
2024-01-11T07:14:46.709Z,30.40
2024-01-11T07:17:19.673Z,32.13
2024-01-11T07:20:00.532Z,33.77
2024-01-11T07:22:30.843Z,31.30
2024-01-11T07:25:01.246Z,31.27
2024-01-11T07:27:31.517Z,34.87
2024-01-11T07:30:03.652Z,33.20
2024-01-11T07:32:36.611Z,33.90
2024-01-11T07:35:12.326Z,33.00
2024-01-11T07:37:51.178Z,32.07
2024-01-11T07:40:21.646Z,33.97
2024-01-11T07:42:51.918Z,31.80
2024-01-11T07:45:22.561Z,33.07
2024-01-11T07:48:10.058Z,32.07
2024-01-11T07:50:40.748Z,33.30
2024-01-11T07:53:11.099Z,33.83
2024-01-11T07:55:41.534Z,31.60
2024-01-11T07:58:13.345Z,30.87
2024-01-11T08:00:43.731Z,32.50
2024-01-11T08:03:16.704Z,34.40
2024-01-11T08:05:51.902Z,31.20
2024-01-11T08:08:23.350Z,30.27
2024-01-11T08:10:53.910Z,32.03
2024-01-11T08:13:24.560Z,32.50
2024-01-11T08:16:01.634Z,29.60
2024-01-11T08:18:35.045Z,30.17
2024-01-11T08:21:07.979Z,36.67
2024-01-11T08:23:38.416Z,47.73
2024-01-11T08:26:09.714Z,46.33
2024-01-11T08:28:40.060Z,40.27
2024-01-11T08:31:13.901Z,36.57
2024-01-11T08:33:46.970Z,33.30
2024-01-11T08:36:17.808Z,41.60
2024-01-11T08:38:48.217Z,43.47
2024-01-11T08:41:18.831Z,52.97
2024-01-11T08:43:55.676Z,41.70
2024-01-11T08:46:32.151Z,46.00
2024-01-11T08:49:06.552Z,44.13
2024-01-11T08:51:36.952Z,52.17
2024-01-11T08:54:12.709Z,78.90
2024-01-11T08:56:43.294Z,49.40
2024-01-11T08:59:16.897Z,50.50
2024-01-11T09:01:56.792Z,55.87
2024-01-11T09:04:35.914Z,37.20
2024-01-11T09:07:06.506Z,34.17
2024-01-11T09:09:44.919Z,37.60
2024-01-11T09:12:21.624Z,33.80
2024-01-11T09:14:51.954Z,35.13
2024-01-11T09:17:23.210Z,48.70
2024-01-11T09:19:56.333Z,32.13
2024-01-11T09:22:27.361Z,29.47
2024-01-11T09:24:57.604Z,29.70
2024-01-11T09:27:27.864Z,31.33
2024-01-11T09:30:00.972Z,28.63
2024-01-11T09:32:32.541Z,26.65
2024-01-11T09:35:11.967Z,29.45
2024-01-11T09:37:47.348Z,33.13
2024-01-11T09:40:18.416Z,34.65
2024-01-11T09:42:57.144Z,36.40
2024-01-11T09:45:33.062Z,32.90
2024-01-11T09:48:05.959Z,36.30
2024-01-11T09:50:40.793Z,33.15
2024-01-11T09:53:15.682Z,38.55
2024-01-11T09:55:53.040Z,34.88
2024-01-11T09:58:25.547Z,40.88
2024-01-11T10:01:00.740Z,37.05
2024-01-11T10:03:34.631Z,33.67
2024-01-11T10:06:12.756Z,35.33
2024-01-11T10:08:49.101Z,36.20
2024-01-11T10:11:21.953Z,38.45
2024-01-11T10:13:52.317Z,32.78
2024-01-11T10:16:22.600Z,41.80
2024-01-11T10:19:06.237Z,34.75
2024-01-11T10:21:45.215Z,33.67
2024-01-11T10:24:24.377Z,38.22
2024-01-11T10:27:05.108Z,32.83
2024-01-11T10:29:39.117Z,31.02
2024-01-11T10:32:12.663Z,37.13
2024-01-11T10:34:43.552Z,36.65
2024-01-11T10:37:18.386Z,37.00
2024-01-11T10:39:54.746Z,37.00
2024-01-11T10:42:32.359Z,34.22
2024-01-11T10:45:08.005Z,34.42
2024-01-11T10:47:41.758Z,38.75
2024-01-11T10:50:13.672Z,35.10
2024-01-11T10:53:08.265Z,39.58
2024-01-11T10:55:39.244Z,37.40
2024-01-11T10:58:13.929Z,39.72
2024-01-11T11:00:51.418Z,42.25
2024-01-11T11:03:26.338Z,36.40
2024-01-11T11:05:59.618Z,40.28
2024-01-11T11:08:32.852Z,48.40
2024-01-11T11:11:07.368Z,45.93
2024-01-11T11:13:42.438Z,37.57
2024-01-11T11:16:12.736Z,38.77
2024-01-11T11:18:45.625Z,37.40
2024-01-11T11:21:15.936Z,42.23
2024-01-11T11:23:48.878Z,38.73
2024-01-11T11:26:23.252Z,41.33
2024-01-11T11:28:53.636Z,39.70
2024-01-11T11:31:39.707Z,35.33
2024-01-11T11:34:10.262Z,35.05
2024-01-11T11:36:40.770Z,38.60
2024-01-11T11:39:15.404Z,36.60
2024-01-11T11:41:48.595Z,38.83
2024-01-11T11:44:20.309Z,41.63
2024-01-11T11:46:53.242Z,39.67
2024-01-11T11:49:23.743Z,39.70
2024-01-11T11:51:54.521Z,39.83
2024-01-11T11:54:30.725Z,42.47
2024-01-11T11:57:04.252Z,38.43
2024-01-11T11:59:35.112Z,47.80
2024-01-11T12:02:05.880Z,44.03
2024-01-11T12:04:38.687Z,53.53
2024-01-11T12:07:09.108Z,40.03
2024-01-11T12:09:42.241Z,67.23
2024-01-11T12:12:16.154Z,39.17
2024-01-11T12:14:50.805Z,37.43
2024-01-11T12:17:25.876Z,44.40
2024-01-11T12:19:57.447Z,43.57
2024-01-11T12:22:30.364Z,41.80
2024-01-11T12:25:05.999Z,36.60
2024-01-11T12:27:42.177Z,43.20
2024-01-11T12:30:18.344Z,45.47
2024-01-11T12:32:50.750Z,41.40
2024-01-11T12:35:25.415Z,39.80
2024-01-11T12:38:05.598Z,52.60
2024-01-11T12:40:41.556Z,46.07
2024-01-11T12:43:21.585Z,45.37
2024-01-11T12:45:52.189Z,46.07
2024-01-11T12:48:22.741Z,47.10
2024-01-11T12:51:02.881Z,49.40
2024-01-11T12:53:46.425Z,48.07
2024-01-11T12:56:20.135Z,44.43
2024-01-11T12:58:53.377Z,40.60
2024-01-11T13:01:27.307Z,44.87
2024-01-11T13:04:00.316Z,44.83
2024-01-11T13:06:33.502Z,47.80
2024-01-11T13:09:06.408Z,46.43
2024-01-11T13:11:39.344Z,47.03
2024-01-11T13:14:20.433Z,46.33
2024-01-11T13:16:55.911Z,48.30
2024-01-11T13:19:27.726Z,49.30
2024-01-11T13:21:58.324Z,44.87
2024-01-11T13:24:28.653Z,44.67
2024-01-11T13:27:01.635Z,45.63
2024-01-11T13:29:32.038Z,49.27
2024-01-11T13:32:07.790Z,44.27
2024-01-11T13:34:38.077Z,44.70
2024-01-11T13:37:08.387Z,47.63
2024-01-11T13:39:38.788Z,49.80
2024-01-11T13:42:17.255Z,46.40
2024-01-11T13:44:47.701Z,43.13
2024-01-11T13:47:18.031Z,46.23
2024-01-11T13:49:48.476Z,46.33
2024-01-11T13:52:24.814Z,47.93
2024-01-11T13:54:55.347Z,44.87
2024-01-11T13:57:28.257Z,46.60
2024-01-11T13:59:58.683Z,44.73
2024-01-11T14:02:31.763Z,45.50
2024-01-11T14:05:05.435Z,45.57
2024-01-11T14:07:35.810Z,43.47
2024-01-11T14:10:07.036Z,48.13
2024-01-11T14:12:40.429Z,46.10
2024-01-11T14:15:17.467Z,46.40
2024-01-11T14:17:57.308Z,44.13
2024-01-11T14:20:28.883Z,50.40
2024-01-11T14:22:59.921Z,48.63
2024-01-11T14:25:30.653Z,45.23
2024-01-11T14:28:05.374Z,58.17
2024-01-11T14:30:35.887Z,50.00
2024-01-11T14:33:09.462Z,47.13
2024-01-11T14:35:39.901Z,54.53
2024-01-11T14:38:10.269Z,50.73
2024-01-11T14:40:46.674Z,48.87
2024-01-11T14:43:21.783Z,49.73
2024-01-11T14:45:53.660Z,49.77
2024-01-11T14:48:25.986Z,53.27
2024-01-11T14:50:56.458Z,50.60
2024-01-11T14:53:26.914Z,52.30
2024-01-11T14:55:59.627Z,50.00
2024-01-11T14:58:32.927Z,48.80
2024-01-11T15:01:05.697Z,49.57
2024-01-11T15:03:36.039Z,55.47
2024-01-11T15:06:08.748Z,47.57
2024-01-11T15:08:39.316Z,56.30
2024-01-11T15:11:18.830Z,54.47
2024-01-11T15:13:51.797Z,59.27
2024-01-11T15:16:27.563Z,54.63
2024-01-11T15:18:57.934Z,54.50
2024-01-11T15:21:29.156Z,57.83
2024-01-11T15:24:00.538Z,61.37
2024-01-11T15:26:33.233Z,56.87
2024-01-11T15:29:07.096Z,60.33
2024-01-11T15:31:41.731Z,56.17
2024-01-11T15:34:12.334Z,54.80
2024-01-11T15:36:43.366Z,53.77
2024-01-11T15:39:25.030Z,54.83
2024-01-11T15:41:59.637Z,57.27
2024-01-11T15:44:35.817Z,54.90
2024-01-11T15:47:06.306Z,57.17
2024-01-11T15:49:37.058Z,52.70
2024-01-11T15:52:07.999Z,52.97
2024-01-11T15:54:40.807Z,60.23
2024-01-11T15:57:11.085Z,53.70
2024-01-11T15:59:43.978Z,53.50
2024-01-11T16:02:15.853Z,55.20
2024-01-11T16:04:46.706Z,51.90
2024-01-11T16:07:20.061Z,52.60
2024-01-11T16:09:53.307Z,53.20
2024-01-11T16:12:24.808Z,54.43
2024-01-11T16:14:59.426Z,57.33
2024-01-11T16:17:31.542Z,54.40
2024-01-11T16:20:02.584Z,54.17
2024-01-11T16:22:35.870Z,54.90
2024-01-11T16:25:06.898Z,57.80
2024-01-11T16:27:41.233Z,56.57
2024-01-11T16:30:17.527Z,56.10
2024-01-11T16:32:47.912Z,60.67
2024-01-11T16:35:21.589Z,64.90
2024-01-11T16:37:52.582Z,66.60
2024-01-11T16:40:23.130Z,67.67
2024-01-11T16:42:53.400Z,66.53
2024-01-11T16:45:30.041Z,64.33
2024-01-11T16:48:06.031Z,61.63
2024-01-11T16:50:36.902Z,59.27
2024-01-11T16:53:07.792Z,58.33
2024-01-11T16:55:38.056Z,54.47
2024-01-11T16:58:08.395Z,57.13
2024-01-11T17:00:41.358Z,58.03
2024-01-11T17:03:12.594Z,53.67
2024-01-11T17:05:51.837Z,52.27
2024-01-11T17:08:22.161Z,52.40
2024-01-11T17:10:55.794Z,51.43
2024-01-11T17:13:26.187Z,51.87
2024-01-11T17:16:01.645Z,49.43
2024-01-11T17:18:32.185Z,51.23
2024-01-11T17:21:02.845Z,54.43
2024-01-11T17:23:33.258Z,50.03
2024-01-11T17:26:05.790Z,51.77
2024-01-11T17:28:36.347Z,49.47
2024-01-11T17:31:12.200Z,53.67
2024-01-11T17:33:46.143Z,47.13
2024-01-11T17:36:18.035Z,46.17
2024-01-11T17:38:49.101Z,43.40
2024-01-11T17:41:19.583Z,44.80
2024-01-11T17:43:54.045Z,46.23
2024-01-11T17:46:33.327Z,43.53
2024-01-11T17:49:10.234Z,45.07
2024-01-11T17:51:40.912Z,45.07
2024-01-11T17:54:11.233Z,40.47
2024-01-11T17:56:44.346Z,43.40
2024-01-11T17:59:14.919Z,42.57
2024-01-11T18:01:47.879Z,38.50
2024-01-11T18:04:28.704Z,40.03
2024-01-11T18:06:59.109Z,44.47
2024-01-11T18:09:29.400Z,40.93
2024-01-11T18:11:59.715Z,37.70
2024-01-11T18:14:32.784Z,41.80
2024-01-11T18:17:15.576Z,36.83
2024-01-11T18:19:46.367Z,45.40
2024-01-11T18:22:25.282Z,53.37
2024-01-11T18:24:55.676Z,48.20
2024-01-11T18:27:28.845Z,43.33
2024-01-11T18:30:02.652Z,41.63
2024-01-11T18:32:35.939Z,45.07
2024-01-11T18:35:12.424Z,53.87
2024-01-11T18:37:42.699Z,42.87
2024-01-11T18:40:14.701Z,42.17
2024-01-11T18:42:47.627Z,40.40
2024-01-11T18:45:18.102Z,37.00
2024-01-11T18:47:53.133Z,39.73
2024-01-11T18:50:30.939Z,40.77
2024-01-11T18:53:04.577Z,40.20
2024-01-11T18:55:37.366Z,38.67
2024-01-11T18:58:11.061Z,34.27
2024-01-11T19:00:41.892Z,38.87
2024-01-11T19:03:25.406Z,37.67
2024-01-11T19:05:58.323Z,35.83
2024-01-11T19:08:33.590Z,35.00
2024-01-11T19:11:04.375Z,37.70
2024-01-11T19:13:34.751Z,36.93
2024-01-11T19:16:05.032Z,36.40
2024-01-11T19:18:40.273Z,39.30
2024-01-11T19:23:45.686Z,34.57
2024-01-11T19:26:16.048Z,38.90
2024-01-11T19:28:46.556Z,39.73
2024-01-11T19:31:19.409Z,38.23
2024-01-11T19:33:55.701Z,38.90
2024-01-11T19:36:26.027Z,46.17
2024-01-11T19:38:57.960Z,40.30
2024-01-11T19:41:33.257Z,36.27
2024-01-11T19:44:03.734Z,36.50
2024-01-11T19:46:35.591Z,40.00
2024-01-11T19:49:08.746Z,40.13
2024-01-11T19:51:39.169Z,38.23
2024-01-11T19:54:12.015Z,38.50
2024-01-11T19:56:42.383Z,43.23
2024-01-11T19:59:12.904Z,42.57
2024-01-11T20:01:46.506Z,41.07
2024-01-11T20:04:21.397Z,38.07
2024-01-11T20:06:51.794Z,40.07
2024-01-11T20:09:22.621Z,40.80
2024-01-11T20:11:58.544Z,44.67
2024-01-11T20:14:40.992Z,45.83
2024-01-11T20:17:14.639Z,49.17
2024-01-11T20:19:54.409Z,43.53
2024-01-11T20:22:27.379Z,59.33
2024-01-11T20:24:57.975Z,60.57
2024-01-11T20:27:28.259Z,53.33
2024-01-11T20:29:58.835Z,53.13
2024-01-11T20:32:29.446Z,50.20
2024-01-11T20:35:02.426Z,47.90
2024-01-11T20:37:34.995Z,45.47
2024-01-11T20:40:13.122Z,44.57
2024-01-11T20:42:45.666Z,42.30
2024-01-11T20:45:19.003Z,46.50
2024-01-11T20:47:49.460Z,43.67
2024-01-11T20:50:22.468Z,44.50
2024-01-11T20:52:52.835Z,47.90
2024-01-11T20:55:25.167Z,43.17
2024-01-11T20:57:55.574Z,43.00
2024-01-11T21:00:25.846Z,43.97
2024-01-11T21:02:57.190Z,44.73
2024-01-11T21:05:38.176Z,146.17
2024-01-11T21:08:11.193Z,45.33
2024-01-11T21:10:44.282Z,37.77
2024-01-11T21:13:16.515Z,40.40
2024-01-11T21:16:02.973Z,41.30
2024-01-11T21:18:33.569Z,44.60
2024-01-11T21:21:06.760Z,42.00
2024-01-11T21:23:37.300Z,40.67
2024-01-11T21:26:07.947Z,36.97
2024-01-11T21:28:41.024Z,35.33
2024-01-11T21:31:14.220Z,38.23
2024-01-11T21:33:47.093Z,37.37
2024-01-11T21:36:24.000Z,38.73
2024-01-11T21:38:56.592Z,37.97
2024-01-11T21:41:28.617Z,38.67
2024-01-11T21:44:00.250Z,40.20
2024-01-11T21:46:33.567Z,41.57
2024-01-11T21:49:07.655Z,47.37
2024-01-11T21:51:43.664Z,40.10
2024-01-11T21:54:16.803Z,38.00
2024-01-11T21:56:47.190Z,36.27
2024-01-11T21:59:17.493Z,42.20
2024-01-11T22:01:50.922Z,38.70
2024-01-11T22:04:24.038Z,38.40
2024-01-11T22:07:04.758Z,39.67
2024-01-11T22:09:35.614Z,40.60
2024-01-11T22:12:06.210Z,40.33
2024-01-11T22:14:45.595Z,39.07
2024-01-11T22:17:18.961Z,38.83
2024-01-11T22:19:49.584Z,38.63
2024-01-11T22:22:24.764Z,36.13
2024-01-11T22:24:57.691Z,36.30
2024-01-11T22:27:28.760Z,37.40
2024-01-11T22:30:01.317Z,34.73
2024-01-11T22:32:38.987Z,38.63
2024-01-11T22:35:13.106Z,38.67
2024-01-11T22:37:45.985Z,37.10
2024-01-11T22:40:17.946Z,42.07
2024-01-11T22:42:49.582Z,39.07
2024-01-11T22:45:20.054Z,38.60
2024-01-11T22:47:51.200Z,35.63
2024-01-11T22:50:21.526Z,39.77
2024-01-11T22:52:55.087Z,43.13
2024-01-11T22:55:25.395Z,39.27
2024-01-11T22:57:58.619Z,40.13
2024-01-11T23:00:30.226Z,36.73
2024-01-11T23:03:00.623Z,38.37
2024-01-11T23:05:31.100Z,37.37
2024-01-11T23:08:04.094Z,36.70
2024-01-11T23:10:36.745Z,37.23
2024-01-11T23:13:07.797Z,38.43
2024-01-11T23:15:38.121Z,41.40
2024-01-11T23:18:09.986Z,41.50
2024-01-11T23:20:40.496Z,37.53
2024-01-11T23:23:13.447Z,39.77
2024-01-11T23:25:43.697Z,40.67
2024-01-11T23:28:14.014Z,38.53
2024-01-11T23:30:44.260Z,41.13
2024-01-11T23:33:35.174Z,47.97
2024-01-11T23:36:05.552Z,42.23
2024-01-11T23:38:43.542Z,40.77
2024-01-11T23:41:13.914Z,38.37
2024-01-11T23:43:44.245Z,39.30
2024-01-11T23:46:14.517Z,36.50
2024-01-11T23:48:44.890Z,40.13
2024-01-11T23:51:15.264Z,35.23
2024-01-11T23:53:48.225Z,36.40
2024-01-11T23:56:18.599Z,37.60
2024-01-11T23:58:51.693Z,36.97
